createdAt,value
2023-05-08T00:00:18.748Z,98620.25
2023-05-08T00:02:46.699Z,98619.59
2023-05-08T00:05:14.334Z,98626.66
2023-05-08T00:07:42.086Z,98633.38
2023-05-08T00:10:10.410Z,98641.31
2023-05-08T00:12:38.111Z,98635.22
2023-05-08T00:15:06.494Z,98634.38
2023-05-08T00:17:34.262Z,98633.91
2023-05-08T00:20:02.482Z,98627.97
2023-05-08T00:22:30.111Z,98630.91
2023-05-08T00:24:57.555Z,98627.63
2023-05-08T00:27:25.116Z,98627.84
2023-05-08T00:29:52.625Z,98627.50
2023-05-08T00:32:20.358Z,98622.16
2023-05-08T00:34:48.023Z,98622.34
2023-05-08T00:37:15.610Z,98615.31
2023-05-08T00:39:43.237Z,98618.25
2023-05-08T00:42:10.919Z,98621.84
2023-05-08T00:44:40.233Z,98619.91
2023-05-08T00:47:09.165Z,98631.44
2023-05-08T00:49:37.052Z,98624.22
2023-05-08T00:52:08.872Z,98625.94
2023-05-08T00:54:38.306Z,98626.69
2023-05-08T00:57:08.833Z,98622.75
2023-05-08T00:59:37.539Z,98626.22
2023-05-08T01:02:06.115Z,98620.56
2023-05-08T01:04:35.058Z,98627.69
2023-05-08T01:07:03.185Z,98621.69
2023-05-08T01:09:30.856Z,98626.09
2023-05-08T01:12:10.165Z,98629.63
2023-05-08T01:15:02.573Z,98619.47
2023-05-08T01:18:01.242Z,98621.69
2023-05-08T01:20:53.453Z,98622.94
2023-05-08T01:23:30.761Z,98617.09
2023-05-08T01:26:34.523Z,98626.56
2023-05-08T01:29:40.355Z,98624.97
2023-05-08T01:32:29.776Z,98617.66
2023-05-08T01:35:16.549Z,98613.19
2023-05-08T01:37:50.228Z,98615.16
2023-05-08T01:40:27.539Z,98620.28
2023-05-08T01:43:17.497Z,98623.09
2023-05-08T01:45:50.272Z,98629.44
2023-05-08T01:48:22.965Z,98631.28
2023-05-08T01:50:58.469Z,98638.22
2023-05-08T01:53:48.022Z,98637.28
2023-05-08T01:56:22.330Z,98628.50
2023-05-08T01:58:53.043Z,98636.47
2023-05-08T02:01:24.703Z,98620.44
2023-05-08T02:03:54.146Z,98628.66
2023-05-08T02:06:25.184Z,98631.19
2023-05-08T02:08:54.924Z,98631.22
2023-05-08T02:11:24.918Z,98633.06
2023-05-08T02:13:54.047Z,98635.28
2023-05-08T02:16:22.872Z,98630.47
2023-05-08T02:18:53.956Z,98634.75
2023-05-08T02:21:23.758Z,98637.91
2023-05-08T02:23:53.136Z,98635.75
2023-05-08T02:26:22.488Z,98636.72
2023-05-08T02:28:52.017Z,98641.88
2023-05-08T02:31:21.124Z,98630.34
2023-05-08T02:33:50.475Z,98642.41
2023-05-08T02:36:20.920Z,98638.72
2023-05-08T02:38:52.944Z,98631.75
2023-05-08T02:41:23.355Z,98630.59
2023-05-08T02:43:52.846Z,98633.56
2023-05-08T02:46:42.574Z,98634.69
2023-05-08T02:49:27.932Z,98632.53
2023-05-08T02:52:14.555Z,98636.34
2023-05-08T02:54:47.278Z,98634.72
2023-05-08T02:57:23.634Z,98638.19
2023-05-08T03:00:14.841Z,98636.22
2023-05-08T03:02:52.770Z,98638.53
2023-05-08T03:05:35.694Z,98648.28
2023-05-08T03:08:06.632Z,98644.66
2023-05-08T03:10:36.725Z,98646.59
2023-05-08T03:13:07.360Z,98649.09
2023-05-08T03:15:41.695Z,98648.41
2023-05-08T03:18:16.883Z,98650.56
2023-05-08T03:20:47.762Z,98653.91
2023-05-08T03:23:18.472Z,98649.28
2023-05-08T03:25:46.449Z,98641.75
2023-05-08T03:28:16.364Z,98645.09
2023-05-08T03:30:44.361Z,98639.97
2023-05-08T03:33:16.607Z,98648.38
2023-05-08T03:35:45.514Z,98642.34
2023-05-08T03:38:13.531Z,98639.03
2023-05-08T03:40:43.012Z,98639.84
2023-05-08T03:43:12.066Z,98642.91
2023-05-08T03:45:41.266Z,98626.72
2023-05-08T03:48:10.253Z,98627.19
2023-05-08T03:50:39.146Z,98634.25
2023-05-08T03:53:10.038Z,98630.03
2023-05-08T03:55:38.443Z,98631.31
2023-05-08T03:58:22.036Z,98631.66
2023-05-08T04:01:16.948Z,98633.88
2023-05-08T04:04:16.606Z,98632.16
2023-05-08T04:06:50.471Z,98631.56
2023-05-08T04:09:31.656Z,98628.13
2023-05-08T04:12:09.777Z,98637.34
2023-05-08T04:15:01.958Z,98634.84
2023-05-08T04:17:45.923Z,98640.38
2023-05-08T04:20:19.915Z,98646.03
2023-05-08T04:22:50.790Z,98646.34
2023-05-08T04:25:20.128Z,98647.41
2023-05-08T04:27:51.452Z,98650.91
2023-05-08T04:30:20.418Z,98649.56
2023-05-08T04:32:48.959Z,98648.13
2023-05-08T04:35:17.860Z,98655.16
2023-05-08T04:37:47.451Z,98655.16
2023-05-08T04:40:15.817Z,98649.13
2023-05-08T04:42:44.182Z,98649.53
2023-05-08T04:45:12.644Z,98651.53
2023-05-08T04:47:41.589Z,98653.28
2023-05-08T04:50:09.820Z,98659.09
2023-05-08T04:52:37.571Z,98659.84
2023-05-08T04:55:05.559Z,98660.13
2023-05-08T04:57:36.214Z,98662.63
2023-05-08T05:00:05.245Z,98665.41
2023-05-08T05:02:36.438Z,98670.06
2023-05-08T05:05:04.414Z,98673.31
2023-05-08T05:07:31.932Z,98679.31
2023-05-08T05:10:01.001Z,98682.38
2023-05-08T05:12:29.209Z,98680.53
2023-05-08T05:14:56.663Z,98676.91
2023-05-08T05:17:25.478Z,98680.69
2023-05-08T05:19:53.509Z,98679.50
2023-05-08T05:22:21.859Z,98678.19
2023-05-08T05:24:49.416Z,98681.22
2023-05-08T05:27:17.925Z,98677.59
2023-05-08T05:29:46.809Z,98671.16
2023-05-08T05:32:14.226Z,98673.66
2023-05-08T05:34:42.116Z,98677.25
2023-05-08T05:37:10.003Z,98674.19
2023-05-08T05:39:38.655Z,98675.00
2023-05-08T05:42:06.465Z,98670.56
2023-05-08T05:44:34.016Z,98671.44
2023-05-08T05:47:01.548Z,98676.03
2023-05-08T05:49:29.178Z,98677.88
2023-05-08T05:51:56.871Z,98676.16
2023-05-08T05:54:24.363Z,98677.22
2023-05-08T05:56:51.893Z,98680.59
2023-05-08T05:59:19.392Z,98683.16
2023-05-08T06:01:46.907Z,98683.59
2023-05-08T06:04:14.645Z,98680.91
2023-05-08T06:06:42.101Z,98690.28
2023-05-08T06:09:09.569Z,98694.00
2023-05-08T06:11:36.975Z,98684.63
2023-05-08T06:14:04.645Z,98688.72
2023-05-08T06:16:32.477Z,98688.97
2023-05-08T06:19:00.520Z,98679.66
2023-05-08T06:21:28.750Z,98682.84
2023-05-08T06:23:56.321Z,98686.53
2023-05-08T06:26:23.857Z,98689.38
2023-05-08T06:28:51.341Z,98687.72
2023-05-08T06:31:19.333Z,98688.81
2023-05-08T06:33:46.887Z,98692.91
2023-05-08T06:36:14.325Z,98686.16
2023-05-08T06:38:41.848Z,98685.28
2023-05-08T06:41:09.311Z,98686.44
2023-05-08T06:43:36.852Z,98693.44
2023-05-08T06:46:07.060Z,98691.69
2023-05-08T06:48:34.681Z,98694.94
2023-05-08T06:51:02.764Z,98694.88
2023-05-08T06:53:30.806Z,98700.72
2023-05-08T06:55:58.965Z,98690.28
2023-05-08T06:58:26.465Z,98697.63
2023-05-08T07:00:53.937Z,98686.41
2023-05-08T07:03:21.708Z,98693.63
2023-05-08T07:05:49.204Z,98692.25
2023-05-08T07:08:16.699Z,98688.53
2023-05-08T07:10:44.093Z,98687.84
2023-05-08T07:13:11.598Z,98684.81
2023-05-08T07:15:42.114Z,98689.59
2023-05-08T07:18:09.748Z,98688.81
2023-05-08T07:20:37.215Z,98692.81
2023-05-08T07:23:04.794Z,98691.47
2023-05-08T07:25:32.323Z,98694.84
2023-05-08T07:28:01.280Z,98692.19
2023-05-08T07:30:29.040Z,98688.78
2023-05-08T07:32:56.775Z,98688.13
2023-05-08T07:35:24.257Z,98696.97
2023-05-08T07:37:51.871Z,98691.66
2023-05-08T07:40:19.468Z,98693.66
2023-05-08T07:42:46.964Z,98691.28
2023-05-08T07:45:15.012Z,98689.84
2023-05-08T07:47:50.765Z,98698.72
2023-05-08T07:50:18.656Z,98692.25
2023-05-08T07:52:47.967Z,98697.25
2023-05-08T07:55:17.976Z,98697.06
2023-05-08T07:57:45.569Z,98697.84
2023-05-08T08:00:15.268Z,98696.78
2023-05-08T08:02:44.984Z,98694.34
2023-05-08T08:05:13.046Z,98701.56
2023-05-08T08:07:40.796Z,98693.50
2023-05-08T08:10:08.744Z,98696.66
2023-05-08T08:12:36.511Z,98690.63
2023-05-08T08:15:04.362Z,98695.28
2023-05-08T08:17:32.061Z,98694.34
2023-05-08T08:19:59.927Z,98689.31
2023-05-08T08:22:27.374Z,98686.88
2023-05-08T08:24:57.879Z,98690.59
2023-05-08T08:27:25.369Z,98689.22
2023-05-08T08:30:04.507Z,98694.00
2023-05-08T08:32:40.540Z,98695.56
2023-05-08T08:35:08.592Z,98688.97
2023-05-08T08:37:36.127Z,98701.09
2023-05-08T08:40:04.057Z,98698.06
2023-05-08T08:42:31.843Z,98700.28
2023-05-08T08:44:59.346Z,98690.38
2023-05-08T08:47:29.998Z,98691.56
2023-05-08T08:50:03.162Z,98701.09
2023-05-08T08:52:47.396Z,98699.69
2023-05-08T08:55:18.621Z,98697.50
2023-05-08T08:58:18.435Z,98696.22
2023-05-08T09:00:47.691Z,98700.66
2023-05-08T09:03:15.692Z,98709.63
2023-05-08T09:05:45.218Z,98703.41
2023-05-08T09:08:13.154Z,98696.88
2023-05-08T09:10:41.137Z,98690.13
2023-05-08T09:13:08.749Z,98707.88
2023-05-08T09:15:36.326Z,98685.16
2023-05-08T09:18:04.151Z,98686.91
2023-05-08T09:20:31.796Z,98703.09
2023-05-08T09:23:02.774Z,98690.06
2023-05-08T09:25:49.006Z,98694.81
2023-05-08T09:28:24.755Z,98694.75
2023-05-08T09:30:57.586Z,98693.31
2023-05-08T09:33:27.295Z,98690.75
2023-05-08T09:35:56.689Z,98683.84
2023-05-08T09:38:30.379Z,98694.31
2023-05-08T09:41:11.244Z,98680.00
2023-05-08T09:43:39.516Z,98681.31
2023-05-08T09:46:27.473Z,98685.00
2023-05-08T09:48:56.969Z,98677.31
2023-05-08T09:51:26.712Z,98679.03
2023-05-08T09:53:56.855Z,98686.50
2023-05-08T09:56:39.603Z,98686.78
2023-05-08T09:59:28.903Z,98678.72
2023-05-08T10:01:57.683Z,98684.00
2023-05-08T10:04:36.020Z,98678.66
2023-05-08T10:07:04.656Z,98678.34
2023-05-08T10:09:46.854Z,98682.34
2023-05-08T10:12:17.770Z,98678.78
2023-05-08T10:14:47.872Z,98678.38
2023-05-08T10:17:25.188Z,98677.59
2023-05-08T10:19:58.453Z,98669.75
2023-05-08T10:22:27.688Z,98680.97
2023-05-08T10:24:58.661Z,98680.63
2023-05-08T10:27:44.519Z,98664.47
2023-05-08T10:30:14.883Z,98672.28
2023-05-08T10:32:51.063Z,98668.28
2023-05-08T10:35:19.318Z,98670.78
2023-05-08T10:37:49.016Z,98663.31
2023-05-08T10:40:21.011Z,98669.13
2023-05-08T10:42:49.960Z,98654.16
2023-05-08T10:45:17.932Z,98654.94
2023-05-08T10:47:53.771Z,98655.63
2023-05-08T10:51:05.760Z,98640.00
2023-05-08T10:53:55.798Z,98643.38
2023-05-08T10:56:27.744Z,98648.16
2023-05-08T10:58:59.457Z,98641.31
2023-05-08T11:01:27.383Z,98640.53
2023-05-08T11:03:57.735Z,98641.31
2023-05-08T11:06:46.648Z,98628.84
2023-05-08T11:09:22.284Z,98630.03
2023-05-08T11:12:21.202Z,98631.84
2023-05-08T11:15:06.837Z,98634.00
2023-05-08T11:17:34.548Z,98634.00
2023-05-08T11:20:07.070Z,98640.81
2023-05-08T11:22:35.724Z,98640.09
2023-05-08T11:25:10.656Z,98634.00
2023-05-08T11:27:42.630Z,98638.13
2023-05-08T11:30:26.830Z,98631.59
2023-05-08T11:32:58.912Z,98627.50
2023-05-08T11:35:51.885Z,98628.19
2023-05-08T11:38:35.031Z,98636.03
2023-05-08T11:41:10.631Z,98633.22
2023-05-08T11:44:02.791Z,98629.66
2023-05-08T11:46:54.743Z,98626.38
2023-05-08T11:49:28.212Z,98630.16
2023-05-08T11:51:59.377Z,98622.50
2023-05-08T11:54:30.197Z,98609.47
2023-05-08T11:56:58.510Z,98613.06
2023-05-08T11:59:26.052Z,98619.56
2023-05-08T12:04:24.186Z,98613.44
2023-05-08T12:06:57.691Z,98612.94
2023-05-08T12:09:25.363Z,98622.13
2023-05-08T12:11:58.093Z,98620.09
2023-05-08T12:14:25.643Z,98612.50
2023-05-08T12:16:53.224Z,98606.53
2023-05-08T12:19:20.744Z,98611.25
2023-05-08T12:21:49.203Z,98598.69
2023-05-08T12:24:23.181Z,98601.97
2023-05-08T12:26:54.609Z,98605.69
2023-05-08T12:29:23.047Z,98599.28
2023-05-08T12:31:51.282Z,98611.84
2023-05-08T12:34:18.959Z,98598.59
2023-05-08T12:36:46.490Z,98607.16
2023-05-08T12:39:16.430Z,98593.88
2023-05-08T12:41:51.308Z,98599.28
2023-05-08T12:44:20.124Z,98604.03
2023-05-08T12:46:57.772Z,98597.66
2023-05-08T12:49:31.856Z,98595.50
2023-05-08T12:52:02.841Z,98586.66
2023-05-08T12:54:34.914Z,98583.53
2023-05-08T12:57:11.126Z,98588.75
2023-05-08T12:59:38.892Z,98579.78
2023-05-08T13:02:26.696Z,98589.91
2023-05-08T13:04:59.531Z,98581.22
2023-05-08T13:07:32.845Z,98591.81
2023-05-08T13:10:05.032Z,98583.63
2023-05-08T13:12:32.706Z,98581.25
2023-05-08T13:15:01.078Z,98591.81
2023-05-08T13:17:28.717Z,98586.44
2023-05-08T13:19:56.257Z,98574.50
2023-05-08T13:22:26.826Z,98579.56
2023-05-08T13:24:54.453Z,98568.69
2023-05-08T13:27:22.414Z,98576.78
2023-05-08T13:29:49.853Z,98565.81
2023-05-08T13:32:17.488Z,98559.81
2023-05-08T13:34:50.258Z,98573.88
2023-05-08T13:37:19.910Z,98565.66
2023-05-08T13:39:47.339Z,98572.09
2023-05-08T13:42:14.823Z,98560.34
2023-05-08T13:44:42.363Z,98551.41
2023-05-08T13:47:10.384Z,98551.31
2023-05-08T13:49:37.925Z,98548.75
2023-05-08T13:52:05.522Z,98551.25
2023-05-08T13:54:33.063Z,98545.69
2023-05-08T13:57:01.311Z,98542.50
2023-05-08T13:59:28.813Z,98556.03
2023-05-08T14:01:56.449Z,98553.84
2023-05-08T14:04:23.932Z,98558.13
2023-05-08T14:06:51.472Z,98549.00
2023-05-08T14:09:18.965Z,98561.16
2023-05-08T14:11:46.567Z,98553.22
2023-05-08T14:14:14.377Z,98550.25
2023-05-08T14:16:42.052Z,98540.81
2023-05-08T14:19:09.724Z,98541.63
2023-05-08T14:21:37.507Z,98543.97
2023-05-08T14:24:05.644Z,98548.53
2023-05-08T14:26:33.168Z,98545.94
2023-05-08T14:29:00.992Z,98545.03
2023-05-08T14:31:28.518Z,98545.03
2023-05-08T14:33:56.226Z,98542.31
2023-05-08T14:36:23.696Z,98533.47
2023-05-08T14:38:51.494Z,98535.81
2023-05-08T14:41:19.004Z,98517.03
2023-05-08T14:43:47.210Z,98521.81
2023-05-08T14:46:15.013Z,98517.25
2023-05-08T14:48:42.893Z,98512.69
2023-05-08T14:51:12.291Z,98523.75
2023-05-08T14:53:41.070Z,98518.09
2023-05-08T14:56:08.900Z,98516.47
2023-05-08T14:58:36.567Z,98520.16
2023-05-08T15:01:04.139Z,98525.84
2023-05-08T15:03:31.952Z,98526.34
2023-05-08T15:06:00.115Z,98520.56
2023-05-08T15:08:27.541Z,98519.47
2023-05-08T15:10:54.989Z,98514.38
2023-05-08T15:13:22.598Z,98518.84
2023-05-08T15:15:50.140Z,98514.34
2023-05-08T15:18:17.633Z,98512.78
2023-05-08T15:20:45.086Z,98513.34
2023-05-08T15:23:12.625Z,98516.66
2023-05-08T15:25:40.032Z,98517.34
2023-05-08T15:28:07.563Z,98506.03
2023-05-08T15:30:35.042Z,98516.53
2023-05-08T15:33:02.750Z,98504.53
2023-05-08T15:35:30.290Z,98514.41
2023-05-08T15:37:57.871Z,98510.38
2023-05-08T15:40:25.372Z,98508.72
2023-05-08T15:42:54.082Z,98519.66
2023-05-08T15:45:21.624Z,98515.09
2023-05-08T15:47:49.214Z,98511.88
2023-05-08T15:50:16.744Z,98509.81
2023-05-08T15:52:44.311Z,98504.00
2023-05-08T15:55:12.053Z,98505.50
2023-05-08T15:57:39.827Z,98504.50
2023-05-08T16:00:07.995Z,98500.38
2023-05-08T16:02:35.572Z,98497.19
2023-05-08T16:05:03.303Z,98499.47
2023-05-08T16:07:30.813Z,98494.19
2023-05-08T16:09:58.302Z,98489.47
2023-05-08T16:12:25.929Z,98491.84
2023-05-08T16:14:53.641Z,98500.44
2023-05-08T16:17:21.180Z,98490.41
2023-05-08T16:19:48.764Z,98485.84
2023-05-08T16:22:16.277Z,98496.59
2023-05-08T16:24:43.764Z,98493.63
2023-05-08T16:27:11.367Z,98499.66
2023-05-08T16:29:39.065Z,98492.72
2023-05-08T16:32:06.607Z,98500.00
2023-05-08T16:34:35.456Z,98492.03
2023-05-08T16:37:02.998Z,98493.84
2023-05-08T16:39:30.657Z,98492.66
2023-05-08T16:41:58.210Z,98495.94
2023-05-08T16:44:25.715Z,98496.78
2023-05-08T16:46:53.367Z,98501.28
2023-05-08T16:49:21.024Z,98496.72
2023-05-08T16:51:48.897Z,98495.66
2023-05-08T16:54:16.476Z,98504.94
2023-05-08T16:56:43.969Z,98503.72
2023-05-08T16:59:11.539Z,98500.28
2023-05-08T17:01:38.991Z,98493.84
2023-05-08T17:04:06.524Z,98505.97
2023-05-08T17:06:33.961Z,98504.47
2023-05-08T17:09:01.486Z,98505.97
2023-05-08T17:11:29.024Z,98503.59
2023-05-08T17:13:56.596Z,98511.13
2023-05-08T17:16:24.219Z,98513.56
2023-05-08T17:18:51.707Z,98508.72
2023-05-08T17:21:19.232Z,98512.13
2023-05-08T17:23:46.754Z,98504.53
2023-05-08T17:26:14.232Z,98507.22
2023-05-08T17:28:41.754Z,98502.94
2023-05-08T17:31:09.756Z,98510.72
2023-05-08T17:33:37.935Z,98516.91
2023-05-08T17:36:05.731Z,98515.75
2023-05-08T17:38:35.343Z,98521.13
2023-05-08T17:41:02.845Z,98520.81
2023-05-08T17:43:31.070Z,98523.59
2023-05-08T17:45:58.634Z,98523.13
2023-05-08T17:48:26.193Z,98528.84
2023-05-08T17:50:53.823Z,98525.69
2023-05-08T17:53:21.331Z,98525.13
2023-05-08T17:55:48.910Z,98534.09
2023-05-08T17:58:16.464Z,98534.56
2023-05-08T18:00:43.961Z,98538.16
2023-05-08T18:03:12.327Z,98540.81
2023-05-08T18:05:39.974Z,98536.75
2023-05-08T18:08:07.505Z,98547.53
2023-05-08T18:10:36.442Z,98545.66
2023-05-08T18:13:04.039Z,98552.59
2023-05-08T18:15:31.554Z,98554.44
2023-05-08T18:17:59.068Z,98554.97
2023-05-08T18:20:26.584Z,98558.97
2023-05-08T18:22:54.117Z,98560.66
2023-05-08T18:25:21.668Z,98560.78
2023-05-08T18:27:50.315Z,98556.97
2023-05-08T18:30:18.045Z,98560.25
2023-05-08T18:32:45.685Z,98559.09
2023-05-08T18:35:13.189Z,98564.00
2023-05-08T18:37:40.705Z,98570.06
2023-05-08T18:40:08.740Z,98567.44
2023-05-08T18:42:36.366Z,98562.66
2023-05-08T18:45:06.106Z,98563.03
2023-05-08T18:47:33.614Z,98562.47
2023-05-08T18:50:01.266Z,98573.25
2023-05-08T18:52:28.789Z,98578.22
2023-05-08T18:54:56.264Z,98572.75
2023-05-08T18:57:23.782Z,98575.72
2023-05-08T18:59:51.310Z,98578.19
2023-05-08T19:02:18.794Z,98571.47
2023-05-08T19:04:46.602Z,98566.00
2023-05-08T19:07:14.085Z,98579.00
2023-05-08T19:09:41.674Z,98582.13
2023-05-08T19:12:09.293Z,98578.38
2023-05-08T19:14:36.865Z,98581.50
2023-05-08T19:17:04.415Z,98585.06
2023-05-08T19:19:31.894Z,98589.00
2023-05-08T19:21:59.416Z,98590.25
2023-05-08T19:24:29.981Z,98583.72
2023-05-08T19:26:57.839Z,98586.47
2023-05-08T19:29:25.819Z,98592.53
2023-05-08T19:31:53.489Z,98595.44
2023-05-08T19:34:21.012Z,98593.00
2023-05-08T19:36:48.493Z,98602.34
2023-05-08T19:39:16.111Z,98599.59
2023-05-08T19:41:43.972Z,98592.53
2023-05-08T19:44:11.533Z,98592.44
2023-05-08T19:46:39.920Z,98599.34
2023-05-08T19:49:07.634Z,98603.03
2023-05-08T19:51:35.073Z,98605.09
2023-05-08T19:54:02.528Z,98599.34
2023-05-08T19:56:30.057Z,98609.22
2023-05-08T19:58:57.536Z,98599.53
2023-05-08T20:01:25.074Z,98602.72
2023-05-08T20:03:52.665Z,98605.06
2023-05-08T20:06:20.198Z,98597.09
2023-05-08T20:08:47.700Z,98599.16
2023-05-08T20:11:15.410Z,98600.19
2023-05-08T20:13:43.058Z,98602.88
2023-05-08T20:16:10.748Z,98601.47
2023-05-08T20:18:38.278Z,98605.16
2023-05-08T20:21:05.757Z,98601.25
2023-05-08T20:23:33.256Z,98603.09
2023-05-08T20:26:00.802Z,98600.47
2023-05-08T20:28:28.450Z,98601.69
2023-05-08T20:30:56.032Z,98598.63
2023-05-08T20:33:23.575Z,98598.22
2023-05-08T20:35:52.087Z,98595.72
2023-05-08T20:38:20.006Z,98603.53
2023-05-08T20:40:47.769Z,98599.25
2023-05-08T20:43:16.965Z,98607.44
2023-05-08T20:45:44.522Z,98598.63
2023-05-08T20:48:12.056Z,98599.44
2023-05-08T20:50:39.567Z,98593.47
2023-05-08T20:53:07.016Z,98599.84
2023-05-08T20:55:34.488Z,98602.28
2023-05-08T20:58:03.704Z,98603.72
2023-05-08T21:00:31.279Z,98604.16
2023-05-08T21:02:58.859Z,98607.22
2023-05-08T21:05:26.441Z,98602.91
2023-05-08T21:08:02.522Z,98607.84
2023-05-08T21:10:31.537Z,98606.38
2023-05-08T21:12:59.205Z,98595.72
2023-05-08T21:15:26.643Z,98604.56
2023-05-08T21:17:54.841Z,98603.13
2023-05-08T21:20:22.261Z,98601.06
2023-05-08T21:22:49.762Z,98604.16
2023-05-08T21:25:17.996Z,98601.50
2023-05-08T21:27:45.445Z,98599.22
2023-05-08T21:30:15.590Z,98601.47
2023-05-08T21:32:44.715Z,98591.44
2023-05-08T21:35:13.134Z,98586.31
2023-05-08T21:37:40.942Z,98581.38
2023-05-08T21:40:09.639Z,98574.84
2023-05-08T21:42:37.169Z,98576.47
2023-05-08T21:45:05.070Z,98576.06
2023-05-08T21:47:32.688Z,98575.84
2023-05-08T21:50:00.241Z,98578.09
2023-05-08T21:52:27.779Z,98573.63
2023-05-08T21:54:55.276Z,98580.56
2023-05-08T21:57:22.812Z,98580.53
2023-05-08T21:59:50.737Z,98580.97
2023-05-08T22:02:19.279Z,98580.16
2023-05-08T22:04:46.739Z,98577.88
2023-05-08T22:07:14.150Z,98580.13
2023-05-08T22:09:41.658Z,98575.63
2023-05-08T22:12:09.436Z,98584.41
2023-05-08T22:14:36.961Z,98575.19
2023-05-08T22:17:04.519Z,98585.72
2023-05-08T22:19:32.150Z,98577.34
2023-05-08T22:21:59.660Z,98575.09
2023-05-08T22:24:27.170Z,98570.53
2023-05-08T22:26:54.653Z,98565.75
2023-05-08T22:29:22.117Z,98565.13
2023-05-08T22:31:49.722Z,98567.66
2023-05-08T22:34:17.334Z,98560.91
2023-05-08T22:36:44.818Z,98555.66
2023-05-08T22:39:12.305Z,98560.34
2023-05-08T22:41:40.084Z,98559.81
2023-05-08T22:44:07.696Z,98559.88
2023-05-08T22:46:36.015Z,98557.09
2023-05-08T22:49:03.730Z,98553.38
2023-05-08T22:51:32.750Z,98553.59
2023-05-08T22:54:00.172Z,98559.13
2023-05-08T22:56:27.884Z,98555.66
2023-05-08T22:58:55.274Z,98555.03
2023-05-08T23:01:23.046Z,98561.31
2023-05-08T23:03:52.430Z,98557.84
2023-05-08T23:06:19.932Z,98549.47
2023-05-08T23:08:47.412Z,98551.69
2023-05-08T23:11:14.941Z,98552.13
2023-05-08T23:13:42.427Z,98546.56
2023-05-08T23:16:09.951Z,98560.06
2023-05-08T23:18:37.427Z,98549.63
2023-05-08T23:21:08.633Z,98545.09
2023-05-08T23:23:36.731Z,98543.22
2023-05-08T23:26:05.155Z,98556.72
2023-05-08T23:28:36.446Z,98552.97
2023-05-08T23:31:04.364Z,98552.72
2023-05-08T23:33:31.865Z,98550.50
2023-05-08T23:35:59.649Z,98556.00
2023-05-08T23:38:27.155Z,98555.34
2023-05-08T23:40:54.754Z,98553.28
2023-05-08T23:43:22.213Z,98549.25
2023-05-08T23:45:49.751Z,98550.50
2023-05-08T23:48:17.365Z,98541.31
2023-05-08T23:50:44.848Z,98547.69
2023-05-08T23:53:13.109Z,98548.09
2023-05-08T23:55:40.691Z,98546.59
2023-05-08T23:58:08.177Z,98552.13
